createdAt,value
2017-06-14T00:00:53.240Z,957.47
2017-06-14T00:01:53.230Z,957.48
2017-06-14T00:02:53.221Z,957.49
2017-06-14T00:03:53.350Z,957.53
2017-06-14T00:04:53.305Z,957.53
2017-06-14T00:05:53.199Z,957.5
2017-06-14T00:06:53.189Z,957.47
2017-06-14T00:07:53.181Z,957.55
2017-06-14T00:08:53.173Z,957.56
2017-06-14T00:09:53.162Z,957.55
2017-06-14T00:10:53.155Z,957.58
2017-06-14T00:11:53.273Z,957.54
2017-06-14T00:12:53.272Z,957.55
2017-06-14T00:13:53.128Z,957.56
2017-06-14T00:14:53.119Z,957.52
2017-06-14T00:15:53.110Z,957.5
2017-06-14T00:16:53.102Z,957.52
2017-06-14T00:17:53.218Z,957.54
2017-06-14T00:18:53.085Z,957.52
2017-06-14T00:19:53.239Z,957.49
2017-06-14T00:20:53.158Z,957.46
2017-06-14T00:21:53.060Z,957.48
2017-06-14T00:22:53.050Z,957.47
2017-06-14T00:23:53.052Z,957.46
2017-06-14T00:24:53.168Z,957.47
2017-06-14T00:25:53.110Z,957.49
2017-06-14T00:26:53.014Z,957.49
2017-06-14T00:27:53.005Z,957.55
2017-06-14T00:28:52.996Z,957.55
2017-06-14T00:29:52.988Z,957.58
2017-06-14T00:30:52.977Z,957.56
2017-06-14T00:31:52.970Z,957.54
2017-06-14T00:32:52.960Z,957.51
2017-06-14T00:33:52.956Z,957.54
2017-06-14T00:34:52.943Z,957.53
2017-06-14T00:35:52.934Z,957.49
2017-06-14T00:36:52.927Z,957.5
2017-06-14T00:37:52.917Z,957.46
2017-06-14T00:38:52.908Z,957.43
2017-06-14T00:39:52.899Z,957.41
2017-06-14T00:40:52.890Z,957.36
2017-06-14T00:41:52.880Z,957.38
2017-06-14T00:42:52.872Z,957.4
2017-06-14T00:43:52.863Z,957.37
2017-06-14T00:44:52.853Z,957.37
2017-06-14T00:45:52.844Z,957.34
2017-06-14T00:46:52.835Z,957.29
2017-06-14T00:47:52.827Z,957.28
2017-06-14T00:48:52.818Z,957.3
2017-06-14T00:49:52.808Z,957.27
2017-06-14T00:50:52.801Z,957.29
2017-06-14T00:51:52.807Z,957.27
2017-06-14T00:52:52.782Z,957.3
2017-06-14T00:53:52.773Z,957.3
2017-06-14T00:54:52.764Z,957.33
2017-06-14T00:55:52.755Z,957.36
2017-06-14T00:56:52.746Z,957.34
2017-06-14T00:57:52.736Z,957.37
2017-06-14T00:58:52.737Z,957.35
2017-06-14T00:59:52.718Z,957.35
2017-06-14T01:00:52.709Z,957.35
2017-06-14T01:01:52.701Z,957.39
2017-06-14T01:02:52.681Z,957.4
2017-06-14T01:03:52.672Z,957.36
2017-06-14T01:04:52.663Z,957.39
2017-06-14T01:05:52.654Z,957.4
2017-06-14T01:06:52.645Z,957.4
2017-06-14T01:07:52.634Z,957.37
2017-06-14T01:08:52.626Z,957.34
2017-06-14T01:09:52.617Z,957.36
2017-06-14T01:10:52.608Z,957.38
2017-06-14T01:11:52.599Z,957.34
2017-06-14T01:12:52.590Z,957.41
2017-06-14T01:13:52.583Z,957.35
2017-06-14T01:14:52.572Z,957.36
2017-06-14T01:15:52.564Z,957.34
2017-06-14T01:16:52.554Z,957.3
2017-06-14T01:17:52.546Z,957.38
2017-06-14T01:18:52.555Z,957.3
2017-06-14T01:19:52.526Z,957.36
2017-06-14T01:20:52.517Z,957.32
2017-06-14T01:21:52.506Z,957.29
2017-06-14T01:22:52.499Z,957.3
2017-06-14T01:23:52.509Z,957.24
2017-06-14T01:24:52.481Z,957.24
2017-06-14T01:25:52.472Z,957.24
2017-06-14T01:26:52.462Z,957.19
2017-06-14T01:27:52.454Z,957.21
2017-06-14T01:28:52.445Z,957.2
2017-06-14T01:29:52.435Z,957.18
2017-06-14T01:30:52.426Z,957.19
2017-06-14T01:31:52.416Z,957.2
2017-06-14T01:32:52.419Z,957.19
2017-06-14T01:33:52.398Z,957.19
2017-06-14T01:34:52.390Z,957.16
2017-06-14T01:35:52.382Z,957.17
2017-06-14T01:36:52.370Z,957.19
2017-06-14T01:37:52.362Z,957.15
2017-06-14T01:38:52.352Z,957.15
2017-06-14T01:39:52.344Z,957.11
2017-06-14T01:40:52.335Z,957.16
2017-06-14T01:41:52.327Z,957.13
2017-06-14T01:42:52.316Z,957.19
2017-06-14T01:43:52.306Z,957.18
2017-06-14T01:44:52.298Z,957.13
2017-06-14T01:45:52.291Z,957.15
2017-06-14T01:46:52.279Z,957.17
2017-06-14T01:47:52.271Z,957.19
2017-06-14T01:48:52.261Z,957.15
2017-06-14T01:49:52.258Z,957.13
2017-06-14T01:50:52.244Z,957.11
2017-06-14T01:51:52.234Z,957.15
2017-06-14T01:52:52.233Z,957.18
2017-06-14T01:53:52.216Z,957.19
2017-06-14T01:54:52.207Z,957.19
2017-06-14T01:55:52.197Z,957.21
2017-06-14T01:56:52.186Z,957.19
2017-06-14T01:57:52.179Z,957.24
2017-06-14T01:58:52.169Z,957.26
2017-06-14T01:59:52.174Z,957.26
2017-06-14T02:00:52.150Z,957.26
2017-06-14T02:01:52.141Z,957.23
2017-06-14T02:02:52.131Z,957.21
2017-06-14T02:03:52.123Z,957.21
2017-06-14T02:04:52.114Z,957.19
2017-06-14T02:05:52.103Z,957.21
2017-06-14T02:06:52.093Z,957.23
2017-06-14T02:07:52.083Z,957.26
2017-06-14T02:08:52.075Z,957.27
2017-06-14T02:09:52.073Z,957.29
2017-06-14T02:10:52.082Z,957.31
2017-06-14T02:11:52.047Z,957.32
2017-06-14T02:12:52.037Z,957.33
2017-06-14T02:13:52.030Z,957.32
2017-06-14T02:14:52.018Z,957.31
2017-06-14T02:15:52.008Z,957.36
2017-06-14T02:16:51.998Z,957.3
2017-06-14T02:17:51.991Z,957.35
2017-06-14T02:18:51.981Z,957.36
2017-06-14T02:19:51.971Z,957.39
2017-06-14T02:20:51.961Z,957.41
2017-06-14T02:21:51.951Z,957.41
2017-06-14T02:22:51.943Z,957.48
2017-06-14T02:23:51.934Z,957.49
2017-06-14T02:24:51.931Z,957.44
2017-06-14T02:25:51.915Z,957.47
2017-06-14T02:26:51.904Z,957.49
2017-06-14T02:27:51.894Z,957.49
2017-06-14T02:28:51.891Z,957.48
2017-06-14T02:29:51.878Z,957.54
2017-06-14T02:30:51.867Z,957.51
2017-06-14T02:31:51.855Z,957.53
2017-06-14T02:32:51.846Z,957.56
2017-06-14T02:33:51.837Z,957.54
2017-06-14T02:34:51.827Z,957.52
2017-06-14T02:35:51.819Z,957.5
2017-06-14T02:36:51.826Z,957.47
2017-06-14T02:37:51.800Z,957.49
2017-06-14T02:38:51.789Z,957.49
2017-06-14T02:39:51.781Z,957.53
2017-06-14T02:40:51.771Z,957.53
2017-06-14T02:41:51.762Z,957.51
2017-06-14T02:42:51.750Z,957.51
2017-06-14T02:43:51.743Z,957.53
2017-06-14T02:44:51.732Z,957.54
2017-06-14T02:45:51.722Z,957.56
2017-06-14T02:46:51.713Z,957.57
2017-06-14T02:47:51.705Z,957.59
2017-06-14T02:48:51.694Z,957.56
2017-06-14T02:49:51.683Z,957.57
2017-06-14T02:50:51.674Z,957.49
2017-06-14T02:51:51.684Z,957.54
2017-06-14T02:52:51.654Z,957.52
2017-06-14T02:53:51.645Z,957.52
2017-06-14T02:54:51.636Z,957.53
2017-06-14T02:55:51.634Z,957.55
2017-06-14T02:56:51.615Z,957.56
2017-06-14T02:57:51.606Z,957.52
2017-06-14T02:58:51.597Z,957.53
2017-06-14T02:59:51.587Z,957.53
2017-06-14T03:00:51.578Z,957.55
2017-06-14T03:01:51.567Z,957.52
2017-06-14T03:02:51.559Z,957.52
2017-06-14T03:03:51.552Z,957.49
2017-06-14T03:04:51.539Z,957.52
2017-06-14T03:05:51.528Z,957.53
2017-06-14T03:06:51.520Z,957.54
2017-06-14T03:07:51.512Z,957.56
2017-06-14T03:08:51.500Z,957.56
2017-06-14T03:09:51.491Z,957.57
2017-06-14T03:10:51.483Z,957.57
2017-06-14T03:11:51.490Z,957.56
2017-06-14T03:12:51.461Z,957.55
2017-06-14T03:13:51.452Z,957.62
2017-06-14T03:14:51.443Z,957.59
2017-06-14T03:15:51.434Z,957.64
2017-06-14T03:16:51.431Z,957.61
2017-06-14T03:17:51.415Z,957.58
2017-06-14T03:18:51.403Z,957.58
2017-06-14T03:19:51.396Z,957.58
2017-06-14T03:20:51.386Z,957.59
2017-06-14T03:21:51.376Z,957.59
2017-06-14T03:22:51.366Z,957.56
2017-06-14T03:23:51.357Z,957.57
2017-06-14T03:24:51.347Z,957.53
2017-06-14T03:25:51.336Z,957.53
2017-06-14T03:26:51.327Z,957.54
2017-06-14T03:27:51.319Z,957.49
2017-06-14T03:28:51.309Z,957.53
2017-06-14T03:29:51.299Z,957.49
2017-06-14T03:30:51.289Z,957.54
2017-06-14T03:31:51.278Z,957.5
2017-06-14T03:32:51.271Z,957.53
2017-06-14T03:33:51.260Z,957.52
2017-06-14T03:34:51.250Z,957.52
2017-06-14T03:35:51.241Z,957.52
2017-06-14T03:36:51.231Z,957.5
2017-06-14T03:37:51.221Z,957.52
2017-06-14T03:38:51.211Z,957.51
2017-06-14T03:39:51.203Z,957.52
2017-06-14T03:40:51.192Z,957.47
2017-06-14T03:41:51.196Z,957.52
2017-06-14T03:42:51.174Z,957.48
2017-06-14T03:43:51.166Z,957.49
2017-06-14T03:44:51.154Z,957.5
2017-06-14T03:45:51.165Z,957.53
2017-06-14T03:46:51.137Z,957.51
2017-06-14T03:47:51.125Z,957.52
2017-06-14T03:48:51.117Z,957.53
2017-06-14T03:49:51.108Z,957.57
2017-06-14T03:50:51.099Z,957.58
2017-06-14T03:51:51.087Z,957.62
2017-06-14T03:52:51.079Z,957.61
2017-06-14T03:53:51.070Z,957.65
2017-06-14T03:54:51.060Z,957.68
2017-06-14T03:55:51.049Z,957.71
2017-06-14T03:56:51.042Z,957.71
2017-06-14T03:57:51.031Z,957.73
2017-06-14T03:58:51.021Z,957.72
2017-06-14T03:59:51.018Z,957.74
2017-06-14T04:00:51.003Z,957.76
2017-06-14T04:01:50.995Z,957.76
2017-06-14T04:02:50.985Z,957.74
2017-06-14T04:03:50.994Z,957.81
2017-06-14T04:04:50.967Z,957.81
2017-06-14T04:05:50.957Z,957.83
2017-06-14T04:06:50.946Z,957.83
2017-06-14T04:07:50.938Z,957.86
2017-06-14T04:08:50.929Z,957.86
2017-06-14T04:09:50.919Z,957.84
2017-06-14T04:10:50.911Z,957.87
2017-06-14T04:11:50.901Z,957.9
2017-06-14T04:12:50.893Z,957.92
2017-06-14T04:13:50.884Z,957.9
2017-06-14T04:14:50.885Z,957.93
2017-06-14T04:15:50.865Z,957.91
2017-06-14T04:16:50.855Z,957.93
2017-06-14T04:17:50.847Z,957.96
2017-06-14T04:18:50.838Z,957.96
2017-06-14T04:19:50.828Z,957.99
2017-06-14T04:20:50.819Z,957.95
2017-06-14T04:21:50.810Z,957.95
2017-06-14T04:22:50.802Z,957.95
2017-06-14T04:23:50.794Z,957.93
2017-06-14T04:24:50.800Z,957.93
2017-06-14T04:25:50.775Z,957.88
2017-06-14T04:26:50.766Z,957.84
2017-06-14T04:27:50.758Z,957.88
2017-06-14T04:28:50.748Z,957.89
2017-06-14T04:29:50.742Z,957.87
2017-06-14T04:30:50.730Z,957.86
2017-06-14T04:31:50.721Z,957.88
2017-06-14T04:32:50.714Z,957.92
2017-06-14T04:33:50.716Z,957.91
2017-06-14T04:34:50.696Z,957.91
2017-06-14T04:35:50.687Z,957.95
2017-06-14T04:36:50.678Z,957.96
2017-06-14T04:37:50.670Z,957.95
2017-06-14T04:38:50.663Z,957.96
2017-06-14T04:39:50.652Z,957.94
2017-06-14T04:40:50.645Z,958
2017-06-14T04:41:50.637Z,957.97
2017-06-14T04:42:50.627Z,957.97
2017-06-14T04:43:50.621Z,958
2017-06-14T04:44:50.612Z,958
2017-06-14T04:45:50.619Z,958.01
2017-06-14T04:46:50.596Z,957.98
2017-06-14T04:47:50.587Z,958.02
2017-06-14T04:48:50.602Z,958.01
2017-06-14T04:49:50.574Z,958
2017-06-14T04:50:50.563Z,957.98
2017-06-14T04:51:50.556Z,958.01
2017-06-14T04:52:50.547Z,957.98
2017-06-14T04:53:50.538Z,957.99
2017-06-14T04:54:50.531Z,958.01
2017-06-14T04:55:50.523Z,958.03
2017-06-14T04:56:50.515Z,958.05
2017-06-14T04:57:50.508Z,958.05
2017-06-14T04:58:50.502Z,958.01
2017-06-14T04:59:50.492Z,958.06
2017-06-14T05:00:50.485Z,958.02
2017-06-14T05:01:50.477Z,958.03
2017-06-14T05:02:50.468Z,958
2017-06-14T05:03:50.463Z,958
2017-06-14T05:04:50.453Z,958.04
2017-06-14T05:05:50.445Z,958.04
2017-06-14T05:06:50.454Z,958.05
2017-06-14T05:07:50.430Z,958.05
2017-06-14T05:08:50.423Z,958.08
2017-06-14T05:09:50.416Z,958.04
2017-06-14T05:10:50.409Z,958.08
2017-06-14T05:11:50.400Z,958.08
2017-06-14T05:12:50.393Z,958.09
2017-06-14T05:13:50.386Z,958.1
2017-06-14T05:14:50.378Z,958.07
2017-06-14T05:15:50.371Z,958.12
2017-06-14T05:16:50.364Z,958.1
2017-06-14T05:17:50.360Z,958.12
2017-06-14T05:18:50.350Z,958.15
2017-06-14T05:19:50.345Z,958.09
2017-06-14T05:20:50.335Z,958.12
2017-06-14T05:21:50.328Z,958.11
2017-06-14T05:22:50.321Z,958.12
2017-06-14T05:23:50.315Z,958.08
2017-06-14T05:24:50.308Z,958.1
2017-06-14T05:25:50.300Z,958.06
2017-06-14T05:26:50.293Z,958.03
2017-06-14T05:27:50.286Z,958
2017-06-14T05:28:50.300Z,958.03
2017-06-14T05:29:50.272Z,958.02
2017-06-14T05:30:50.265Z,958
2017-06-14T05:31:50.257Z,958
2017-06-14T05:32:50.251Z,957.99
2017-06-14T05:33:50.245Z,958.04
2017-06-14T05:34:50.238Z,958.04
2017-06-14T05:35:50.232Z,958.07
2017-06-14T05:36:50.225Z,958.09
2017-06-14T05:37:50.219Z,958.11
2017-06-14T05:38:50.212Z,958.14
2017-06-14T05:39:50.205Z,958.12
2017-06-14T05:40:50.199Z,958.11
2017-06-14T05:41:50.193Z,958.08
2017-06-14T05:42:50.186Z,958.1
2017-06-14T05:43:50.180Z,958.1
2017-06-14T05:44:50.172Z,958.09
2017-06-14T05:45:50.166Z,958.06
2017-06-14T05:46:50.161Z,958.06
2017-06-14T05:47:50.155Z,958.04
2017-06-14T05:48:50.147Z,958.08
2017-06-14T05:49:50.143Z,958.06
2017-06-14T05:50:50.137Z,958.02
2017-06-14T05:51:50.130Z,958.04
2017-06-14T05:52:50.125Z,958.03
2017-06-14T05:53:50.125Z,958.03
2017-06-14T05:54:50.111Z,958.05
2017-06-14T05:55:50.105Z,958.03
2017-06-14T05:56:50.100Z,958.02
2017-06-14T05:57:50.297Z,958.05
2017-06-14T05:58:50.089Z,958.03
2017-06-14T05:59:50.093Z,958.03
2017-06-14T06:00:50.087Z,958.06
2017-06-14T06:01:50.082Z,958.05
2017-06-14T06:02:50.082Z,958.06
2017-06-14T06:03:50.070Z,958.04
2017-06-14T06:04:50.064Z,958.05
2017-06-14T06:05:50.062Z,958.07
2017-06-14T06:06:50.052Z,958.07
2017-06-14T06:07:50.048Z,958.03
2017-06-14T06:08:50.041Z,958
2017-06-14T06:09:50.035Z,958.01
2017-06-14T06:10:50.030Z,958.02
2017-06-14T06:11:50.024Z,958
2017-06-14T06:12:50.023Z,957.99
2017-06-14T06:13:50.015Z,958
2017-06-14T06:14:50.008Z,958.02
2017-06-14T06:15:50.002Z,958
2017-06-14T06:16:49.998Z,958.05
2017-06-14T06:17:49.991Z,958.05
2017-06-14T06:18:49.987Z,958.05
2017-06-14T06:19:49.983Z,958.05
2017-06-14T06:20:49.992Z,958.05
2017-06-14T06:21:49.993Z,958.07
2017-06-14T06:22:50.007Z,958.06
2017-06-14T06:23:49.962Z,958.06
2017-06-14T06:24:49.957Z,958.07
2017-06-14T06:25:49.952Z,958.06
2017-06-14T06:26:49.946Z,958.08
2017-06-14T06:27:49.945Z,958.12
2017-06-14T06:28:49.961Z,958.13
2017-06-14T06:29:49.933Z,958.13
2017-06-14T06:30:49.945Z,958.17
2017-06-14T06:31:49.922Z,958.09
2017-06-14T06:32:49.918Z,958.12
2017-06-14T06:33:49.914Z,958.14
2017-06-14T06:34:49.909Z,958.12
2017-06-14T06:35:49.903Z,958.15
2017-06-14T06:36:49.899Z,958.22
2017-06-14T06:37:49.894Z,958.22
2017-06-14T06:38:49.893Z,958.22
2017-06-14T06:39:49.885Z,958.2
2017-06-14T06:40:49.884Z,958.25
2017-06-14T06:41:49.898Z,958.22
2017-06-14T06:42:49.875Z,958.21
2017-06-14T06:43:49.872Z,958.24
2017-06-14T06:44:49.867Z,958.22
2017-06-14T06:45:49.866Z,958.23
2017-06-14T06:46:49.862Z,958.2
2017-06-14T06:47:49.876Z,958.21
2017-06-14T06:48:49.854Z,958.21
2017-06-14T06:49:49.850Z,958.24
2017-06-14T06:50:49.849Z,958.23
2017-06-14T06:51:49.845Z,958.26
2017-06-14T06:52:49.843Z,958.26
2017-06-14T06:53:49.838Z,958.27
2017-06-14T06:54:49.834Z,958.28
2017-06-14T06:55:49.832Z,958.32
2017-06-14T06:56:49.828Z,958.31
2017-06-14T06:57:49.834Z,958.31
2017-06-14T06:58:49.821Z,958.3
2017-06-14T06:59:49.818Z,958.36
2017-06-14T07:00:49.816Z,958.57
2017-06-14T07:01:49.811Z,958.53
2017-06-14T07:02:49.820Z,958.55
2017-06-14T07:03:49.807Z,958.56
2017-06-14T07:04:49.803Z,958.49
2017-06-14T07:05:49.800Z,958.52
2017-06-14T07:06:49.798Z,958.55
2017-06-14T07:07:49.831Z,958.36
2017-06-14T07:08:49.796Z,958.36
2017-06-14T07:09:49.806Z,958.52
2017-06-14T07:10:49.792Z,958.5
2017-06-14T07:11:49.792Z,958.43
2017-06-14T07:12:49.790Z,958.36
2017-06-14T07:13:49.821Z,958.38
2017-06-14T07:14:49.791Z,958.39
2017-06-14T07:15:49.808Z,958.39
2017-06-14T07:16:49.811Z,958.4
2017-06-14T07:17:49.787Z,958.49
2017-06-14T07:18:49.794Z,958.38
2017-06-14T07:19:49.788Z,958.43
2017-06-14T07:20:49.787Z,958.52
2017-06-14T07:21:49.789Z,958.49
2017-06-14T07:22:49.789Z,958.52
2017-06-14T07:23:49.788Z,958.69
2017-06-14T07:24:49.787Z,958.56
2017-06-14T07:25:49.788Z,958.45
2017-06-14T07:26:49.789Z,958.59
2017-06-14T07:27:49.787Z,958.74
2017-06-14T07:28:49.786Z,958.74
2017-06-14T07:29:49.788Z,958.77
2017-06-14T07:30:49.788Z,958.49
2017-06-14T07:31:49.786Z,958.56
2017-06-14T07:32:49.788Z,958.49
2017-06-14T07:33:49.789Z,958.43
2017-06-14T07:34:49.790Z,958.49
2017-06-14T07:35:49.789Z,958.52
2017-06-14T07:36:49.790Z,958.47
2017-06-14T07:37:49.793Z,958.5
2017-06-14T07:38:49.793Z,958.45
2017-06-14T07:39:49.796Z,958.49
2017-06-14T07:40:49.794Z,958.53
2017-06-14T07:41:49.795Z,958.55
2017-06-14T07:42:49.830Z,958.54
2017-06-14T07:43:49.798Z,958.5
2017-06-14T07:44:49.799Z,958.57
2017-06-14T07:45:49.799Z,958.57
2017-06-14T07:46:49.800Z,958.53
2017-06-14T07:47:49.804Z,958.52
2017-06-14T07:48:49.805Z,958.53
2017-06-14T07:49:49.837Z,958.56
2017-06-14T07:50:49.808Z,958.54
2017-06-14T07:51:49.810Z,958.56
2017-06-14T07:52:49.811Z,958.52
2017-06-14T07:53:49.812Z,958.59
2017-06-14T07:54:49.817Z,958.57
2017-06-14T07:55:49.819Z,958.57
2017-06-14T07:56:49.984Z,958.48
2017-06-14T07:57:49.822Z,958.49
2017-06-14T07:58:49.874Z,958.45
2017-06-14T07:59:49.825Z,958.42
2017-06-14T08:00:49.828Z,958.46
2017-06-14T08:01:49.840Z,958.44
2017-06-14T08:02:49.832Z,958.43
2017-06-14T08:03:49.831Z,958.44
2017-06-14T08:04:49.834Z,958.45
2017-06-14T08:05:49.837Z,958.44
2017-06-14T08:06:49.838Z,958.41
2017-06-14T08:07:49.838Z,958.43
2017-06-14T08:08:49.841Z,958.45
2017-06-14T08:09:49.840Z,958.46
2017-06-14T08:10:49.844Z,958.4
2017-06-14T08:11:49.843Z,958.39
2017-06-14T08:12:49.844Z,958.43
2017-06-14T08:13:49.846Z,958.4
2017-06-14T08:14:49.846Z,958.42
2017-06-14T08:15:49.848Z,958.4
2017-06-14T08:16:49.848Z,958.45
2017-06-14T08:17:49.858Z,958.38
2017-06-14T08:18:49.850Z,958.38
2017-06-14T08:19:49.851Z,958.4
2017-06-14T08:20:49.852Z,958.38
2017-06-14T08:21:49.851Z,958.32
2017-06-14T08:22:49.853Z,958.28
2017-06-14T08:23:49.854Z,958.32
2017-06-14T08:24:49.856Z,958.29
2017-06-14T08:25:49.855Z,958.22
2017-06-14T08:26:49.855Z,958.19
2017-06-14T08:27:49.856Z,958.2
2017-06-14T08:28:49.857Z,958.21
2017-06-14T08:29:49.856Z,958.23
2017-06-14T08:30:49.857Z,958.23
2017-06-14T08:31:49.857Z,958.2
2017-06-14T08:32:49.907Z,958.24
2017-06-14T08:33:49.856Z,958.23
2017-06-14T08:34:49.857Z,958.16
2017-06-14T08:35:49.879Z,958.22
2017-06-14T08:36:49.857Z,958.21
2017-06-14T08:37:49.857Z,958.13
2017-06-14T08:38:49.857Z,958.13
2017-06-14T08:39:49.857Z,958.09
2017-06-14T08:40:49.855Z,958.08
2017-06-14T08:41:49.856Z,958.08
2017-06-14T08:42:49.855Z,958.09
2017-06-14T08:43:49.862Z,958.18
2017-06-14T08:44:49.852Z,958.12
2017-06-14T08:45:49.853Z,958.14
2017-06-14T08:46:49.853Z,958.16
2017-06-14T08:47:49.849Z,958.17
2017-06-14T08:48:49.859Z,958.14
2017-06-14T08:49:49.849Z,958.18
2017-06-14T08:50:49.850Z,958.2
2017-06-14T08:51:49.849Z,958.22
2017-06-14T08:52:49.847Z,958.25
2017-06-14T08:53:49.846Z,958.27
2017-06-14T08:54:49.846Z,958.21
2017-06-14T08:55:49.845Z,958.25
2017-06-14T08:56:49.845Z,958.27
2017-06-14T08:57:49.851Z,958.23
2017-06-14T08:58:49.843Z,958.28
2017-06-14T08:59:49.841Z,958.25
2017-06-14T09:00:49.842Z,958.23
2017-06-14T09:01:49.839Z,958.14
2017-06-14T09:02:49.838Z,958.16
2017-06-14T09:03:49.838Z,958.2
2017-06-14T09:04:49.837Z,958.22
2017-06-14T09:05:49.837Z,958.2
2017-06-14T09:06:49.835Z,958.22
2017-06-14T09:07:49.835Z,958.25
2017-06-14T09:08:49.834Z,958.31
2017-06-14T09:09:49.832Z,958.26
2017-06-14T09:10:49.830Z,958.27
2017-06-14T09:11:49.829Z,958.29
2017-06-14T09:12:49.827Z,958.26
2017-06-14T09:13:49.826Z,958.25
2017-06-14T09:14:49.845Z,958.28
2017-06-14T09:15:49.825Z,958.28
2017-06-14T09:16:49.823Z,958.26
2017-06-14T09:17:49.823Z,958.28
2017-06-14T09:18:49.820Z,958.32
2017-06-14T09:19:49.821Z,958.35
2017-06-14T09:20:49.820Z,958.35
2017-06-14T09:21:49.819Z,958.3
2017-06-14T09:22:49.819Z,958.34
2017-06-14T09:23:49.815Z,958.37
2017-06-14T09:24:49.816Z,958.41
2017-06-14T09:25:49.816Z,958.34
2017-06-14T09:26:49.816Z,958.35
2017-06-14T09:27:49.814Z,958.33
2017-06-14T09:28:49.814Z,958.34
2017-06-14T09:29:49.813Z,958.34
2017-06-14T09:30:49.813Z,958.3
2017-06-14T09:31:49.812Z,958.26
2017-06-14T09:32:49.812Z,958.27
2017-06-14T09:33:49.811Z,958.23
2017-06-14T09:34:49.811Z,958.24
2017-06-14T09:35:49.809Z,958.23
2017-06-14T09:36:49.811Z,958.24
2017-06-14T09:37:49.811Z,958.24
2017-06-14T09:38:49.809Z,958.2
2017-06-14T09:39:49.810Z,958.25
2017-06-14T09:40:49.810Z,958.23
2017-06-14T09:41:49.810Z,958.23
2017-06-14T09:42:49.809Z,958.22
2017-06-14T09:43:49.809Z,958.18
2017-06-14T09:44:49.808Z,958.14
2017-06-14T09:45:49.808Z,958.13
2017-06-14T09:46:49.807Z,958.12
2017-06-14T09:47:49.807Z,958.11
2017-06-14T09:48:49.807Z,958.14
2017-06-14T09:49:49.807Z,958.1
2017-06-14T09:50:49.806Z,958.06
2017-06-14T09:51:49.822Z,958.12
2017-06-14T09:52:49.806Z,958.09
2017-06-14T09:53:49.807Z,958.15
2017-06-14T09:54:49.804Z,958.13
2017-06-14T09:55:49.804Z,958.12
2017-06-14T09:56:49.804Z,958.11
2017-06-14T09:57:49.803Z,958.1
2017-06-14T09:58:49.803Z,958.11
2017-06-14T09:59:49.812Z,958.09
2017-06-14T10:00:49.800Z,958.14
2017-06-14T10:01:49.801Z,958.12
2017-06-14T10:02:49.801Z,958.16
2017-06-14T10:03:49.801Z,958.16
2017-06-14T10:04:49.814Z,958.17
2017-06-14T10:05:49.799Z,958.18
2017-06-14T10:06:49.811Z,958.17
2017-06-14T10:07:49.798Z,958.17
2017-06-14T10:08:49.797Z,958.17
2017-06-14T10:09:49.797Z,958.12
2017-06-14T10:10:49.797Z,958.1
2017-06-14T10:11:49.795Z,958.1
2017-06-14T10:12:49.795Z,958.09
2017-06-14T10:13:49.795Z,958.12
2017-06-14T10:14:49.795Z,958.09
2017-06-14T10:15:49.794Z,958.08
2017-06-14T10:16:49.793Z,958.06
2017-06-14T10:17:49.792Z,958.06
2017-06-14T10:18:49.791Z,958.09
2017-06-14T10:19:49.790Z,958.09
2017-06-14T10:20:49.791Z,958.08
2017-06-14T10:21:49.791Z,958.1
2017-06-14T10:22:49.791Z,958.08
2017-06-14T10:23:49.809Z,958.1
2017-06-14T10:24:49.790Z,958.08
2017-06-14T10:25:49.789Z,958.09
2017-06-14T10:26:49.788Z,958.06
2017-06-14T10:27:49.788Z,958.02
2017-06-14T10:28:49.788Z,958.02
2017-06-14T10:29:49.785Z,958
2017-06-14T10:30:49.785Z,957.97
2017-06-14T10:31:49.786Z,957.97
2017-06-14T10:32:49.785Z,957.99
2017-06-14T10:33:49.785Z,958.01
2017-06-14T10:34:49.784Z,957.97
2017-06-14T10:35:49.782Z,958
2017-06-14T10:36:49.784Z,958
2017-06-14T10:37:49.782Z,958.04
2017-06-14T10:38:49.802Z,958
2017-06-14T10:39:49.784Z,957.96
2017-06-14T10:40:49.781Z,957.95
2017-06-14T10:41:49.782Z,957.96
2017-06-14T10:42:49.781Z,957.96
2017-06-14T10:43:49.782Z,957.93
2017-06-14T10:44:49.780Z,957.96
2017-06-14T10:45:49.780Z,957.99
2017-06-14T10:46:49.780Z,958
2017-06-14T10:47:49.781Z,957.99
2017-06-14T10:48:49.781Z,957.96
2017-06-14T10:49:49.778Z,957.95
2017-06-14T10:50:49.780Z,957.94
2017-06-14T10:51:49.777Z,957.92
2017-06-14T10:52:49.777Z,957.95
2017-06-14T10:53:49.778Z,957.92
2017-06-14T10:54:49.777Z,957.96
2017-06-14T10:55:49.775Z,957.96
2017-06-14T10:56:49.776Z,957.9
2017-06-14T10:57:49.776Z,957.95
2017-06-14T10:58:49.776Z,957.97
2017-06-14T10:59:49.775Z,957.94
2017-06-14T11:00:49.775Z,957.98
2017-06-14T11:01:49.775Z,957.95
2017-06-14T11:02:49.774Z,957.98
2017-06-14T11:03:49.773Z,957.95
2017-06-14T11:04:49.999Z,957.93
2017-06-14T11:05:49.773Z,957.91
2017-06-14T11:06:49.776Z,957.91
2017-06-14T11:07:49.772Z,957.9
2017-06-14T11:08:49.795Z,957.94
2017-06-14T11:09:49.776Z,957.95
2017-06-14T11:10:49.773Z,957.96
2017-06-14T11:11:49.773Z,957.96
2017-06-14T11:12:49.771Z,957.97
2017-06-14T11:13:49.771Z,957.97
2017-06-14T11:14:49.771Z,958.03
2017-06-14T11:15:49.771Z,958.03
2017-06-14T11:16:49.771Z,958.04
2017-06-14T11:17:49.771Z,958.03
2017-06-14T11:18:49.768Z,958.04
2017-06-14T11:19:49.770Z,958
2017-06-14T11:20:49.770Z,958.02
2017-06-14T11:21:49.769Z,958.03
2017-06-14T11:22:49.770Z,958.03
2017-06-14T11:23:49.780Z,958.02
2017-06-14T11:24:49.766Z,958.04
2017-06-14T11:25:49.768Z,958.05
2017-06-14T11:26:49.768Z,958.03
2017-06-14T11:27:49.768Z,958.03
2017-06-14T11:28:49.766Z,958.02
2017-06-14T11:29:49.767Z,957.94
2017-06-14T11:30:49.766Z,957.98
2017-06-14T11:31:49.766Z,957.93
2017-06-14T11:32:49.766Z,957.92
2017-06-14T11:33:49.766Z,957.94
2017-06-14T11:34:49.765Z,957.91
2017-06-14T11:35:49.764Z,957.88
2017-06-14T11:36:49.764Z,957.85
2017-06-14T11:37:49.764Z,957.81
2017-06-14T11:38:49.764Z,957.77
2017-06-14T11:39:49.767Z,957.78
2017-06-14T11:40:49.764Z,957.75
2017-06-14T11:41:49.764Z,957.76
2017-06-14T11:42:49.763Z,957.75
2017-06-14T11:43:49.762Z,957.74
2017-06-14T11:44:49.764Z,957.69
2017-06-14T11:45:49.763Z,957.69
2017-06-14T11:46:49.762Z,957.73
2017-06-14T11:47:49.762Z,957.71
2017-06-14T11:48:49.765Z,957.75
2017-06-14T11:49:49.762Z,957.75
2017-06-14T11:50:49.761Z,957.77
2017-06-14T11:51:49.761Z,957.73
2017-06-14T11:52:49.763Z,957.73
2017-06-14T11:53:49.763Z,957.73
2017-06-14T11:54:49.762Z,957.72
2017-06-14T11:55:49.762Z,957.68
2017-06-14T11:56:49.762Z,957.65
2017-06-14T11:57:49.759Z,957.59
2017-06-14T11:58:49.760Z,957.6
2017-06-14T11:59:49.760Z,957.61
2017-06-14T12:00:49.762Z,957.58
2017-06-14T12:01:49.760Z,957.59
2017-06-14T12:02:49.761Z,957.58
2017-06-14T12:03:49.760Z,957.57
2017-06-14T12:04:49.760Z,957.6
2017-06-14T12:05:49.759Z,957.57
2017-06-14T12:06:49.761Z,957.53
2017-06-14T12:07:49.770Z,957.54
2017-06-14T12:08:49.759Z,957.55
2017-06-14T12:09:49.759Z,957.51
2017-06-14T12:10:49.759Z,957.46
2017-06-14T12:11:49.759Z,957.5
2017-06-14T12:12:49.758Z,957.44
2017-06-14T12:13:49.760Z,957.46
2017-06-14T12:14:49.759Z,957.45
2017-06-14T12:15:49.777Z,957.48
2017-06-14T12:16:49.759Z,957.45
2017-06-14T12:17:49.758Z,957.4
2017-06-14T12:18:49.759Z,957.4
2017-06-14T12:19:49.758Z,957.38
2017-06-14T12:20:49.757Z,957.41
2017-06-14T12:21:49.759Z,957.41
2017-06-14T12:22:49.760Z,957.41
2017-06-14T12:23:49.758Z,957.42
2017-06-14T12:24:49.760Z,957.42
2017-06-14T12:25:49.759Z,957.43
2017-06-14T12:26:49.757Z,957.43
2017-06-14T12:27:49.759Z,957.46
2017-06-14T12:28:49.758Z,957.42
2017-06-14T12:29:49.757Z,957.43
2017-06-14T12:30:49.762Z,957.46
2017-06-14T12:31:49.780Z,957.43
2017-06-14T12:32:49.758Z,957.4